Terminal Aerodrome Forecast
Issued by NWS

Home | Current Version | Previous Version | Text Only | Print | Product List | Glossary Off
Versions: 1 2 3 4 5 6 7 8 9 10 11 12 13 14 15 16 17 18 19 20 21 22 23 24 25 26 27 28 29 30

000
FTUS43 KLOT 300800 AAA
TAFGYY
TAF AMD
KGYY 300855Z 3009/3106 23004KT P6SM SCT250
     FM301300 20005KT P6SM SCT050 BKN250
     FM301900 24008KT P6SM SCT040 BKN100
     FM302300 27004KT P6SM SCT035 OVC060=

USA.gov is the U.S. government's official web portal to all federal, state and local government web resources and services.